createdAt,value
2018-04-06T00:00:09.201Z,80.10
2018-04-06T00:02:36.758Z,80.10
2018-04-06T00:05:04.306Z,80.10
2018-04-06T00:07:31.882Z,80.20
2018-04-06T00:09:59.417Z,80.10
2018-04-06T00:12:26.977Z,79.60
2018-04-06T00:14:54.517Z,79.40
2018-04-06T00:17:22.085Z,79.50
2018-04-06T00:19:50.391Z,79.50
2018-04-06T00:22:17.978Z,79.30
2018-04-06T00:24:45.540Z,80.60
2018-04-06T00:27:13.111Z,81.00
2018-04-06T00:29:40.663Z,81.20
2018-04-06T00:32:08.245Z,80.80
2018-04-06T00:34:35.806Z,80.80
2018-04-06T00:37:03.385Z,80.60
2018-04-06T00:39:31.694Z,80.40
2018-04-06T00:41:59.283Z,80.40
2018-04-06T00:44:26.839Z,80.60
2018-04-06T00:46:55.179Z,80.70
2018-04-06T00:49:22.729Z,80.60
2018-04-06T00:51:50.314Z,80.70
2018-04-06T00:54:17.862Z,80.50
2018-04-06T00:56:45.447Z,80.90
2018-04-06T00:59:12.981Z,81.70
2018-04-06T01:01:40.520Z,82.00
2018-04-06T01:04:08.103Z,82.10
2018-04-06T01:06:35.651Z,82.00
2018-04-06T01:09:03.992Z,82.20
2018-04-06T01:11:31.538Z,82.20
2018-04-06T01:13:59.103Z,82.20
2018-04-06T01:16:26.645Z,82.30
2018-04-06T01:18:54.210Z,82.50
2018-04-06T01:21:21.762Z,82.50
2018-04-06T01:23:49.319Z,82.40
2018-04-06T01:26:16.870Z,82.50
2018-04-06T01:28:44.445Z,82.70
2018-04-06T01:31:11.991Z,83.00
2018-04-06T01:33:39.563Z,83.20
2018-04-06T01:36:07.117Z,83.30
2018-04-06T01:38:34.698Z,83.20
2018-04-06T01:41:02.262Z,82.90
2018-04-06T01:43:29.925Z,82.90
2018-04-06T01:45:57.504Z,83.20
2018-04-06T01:48:25.073Z,83.30
2018-04-06T01:50:53.460Z,83.20
2018-04-06T01:53:21.911Z,82.70
2018-04-06T01:55:49.590Z,82.70
2018-04-06T01:58:17.209Z,82.40
2018-04-06T02:00:44.844Z,82.30
2018-04-06T02:03:12.484Z,81.80
2018-04-06T02:05:40.908Z,82.70
2018-04-06T02:08:08.515Z,82.60
2018-04-06T02:10:36.178Z,83.10
2018-04-06T02:13:03.774Z,83.00
2018-04-06T02:15:31.399Z,82.90
2018-04-06T02:17:59.023Z,82.60
2018-04-06T02:20:26.663Z,82.90
2018-04-06T02:22:54.256Z,83.50
2018-04-06T02:25:21.876Z,83.60
2018-04-06T02:27:49.478Z,83.30
2018-04-06T02:30:17.169Z,83.20
2018-04-06T02:32:44.782Z,83.20
2018-04-06T02:35:12.441Z,83.00
2018-04-06T02:37:40.028Z,83.20
2018-04-06T02:40:07.668Z,83.30
2018-04-06T02:42:35.297Z,83.00
2018-04-06T02:45:03.615Z,83.30
2018-04-06T02:47:31.220Z,82.50
2018-04-06T02:49:58.819Z,82.20
2018-04-06T02:52:26.434Z,81.90
2018-04-06T02:54:54.083Z,82.00
2018-04-06T02:57:21.721Z,81.90
2018-04-06T02:59:49.313Z,82.20
2018-04-06T03:02:16.928Z,81.90
2018-04-06T03:04:44.523Z,82.00
2018-04-06T03:07:12.115Z,81.70
2018-04-06T03:09:39.694Z,81.90
2018-04-06T03:12:07.313Z,82.50
2018-04-06T03:14:34.846Z,82.90
2018-04-06T03:17:02.429Z,82.90
2018-04-06T03:19:29.968Z,82.90
2018-04-06T03:21:57.537Z,82.90
2018-04-06T03:24:25.157Z,83.20
2018-04-06T03:26:52.682Z,83.00
2018-04-06T03:29:20.263Z,82.50
2018-04-06T03:31:48.567Z,82.40
2018-04-06T03:34:16.133Z,82.20
2018-04-06T03:36:43.660Z,82.20
2018-04-06T03:39:11.983Z,82.90
2018-04-06T03:41:39.520Z,82.90
2018-04-06T03:44:07.087Z,83.70
2018-04-06T03:46:34.642Z,83.80
2018-04-06T03:49:02.211Z,83.80
2018-04-06T03:51:29.767Z,83.80
2018-04-06T03:53:57.310Z,83.20
2018-04-06T03:56:25.646Z,82.50
2018-04-06T03:58:53.186Z,82.40
2018-04-06T04:01:20.746Z,82.50
2018-04-06T04:03:48.291Z,82.80
2018-04-06T04:06:15.866Z,83.10
2018-04-06T04:08:43.394Z,83.50
2018-04-06T04:11:10.966Z,83.50
2018-04-06T04:13:38.503Z,83.20
2018-04-06T04:16:06.822Z,83.30
2018-04-06T04:18:34.359Z,83.20
2018-04-06T04:21:01.935Z,83.20
2018-04-06T04:23:29.473Z,82.70
2018-04-06T04:25:57.033Z,82.10
2018-04-06T04:28:24.584Z,82.30
2018-04-06T04:30:52.902Z,82.20
2018-04-06T04:33:20.431Z,82.20
2018-04-06T04:35:48.018Z,82.00
2018-04-06T04:38:16.323Z,82.60
2018-04-06T04:40:43.853Z,81.70
2018-04-06T04:43:11.419Z,81.80
2018-04-06T04:45:38.958Z,81.70
2018-04-06T04:48:06.522Z,81.50
2018-04-06T04:50:34.058Z,81.10
2018-04-06T04:53:01.631Z,81.00
2018-04-06T04:55:29.162Z,80.60
2018-04-06T04:57:57.490Z,80.50
2018-04-06T05:00:25.040Z,80.40
2018-04-06T05:02:52.617Z,81.20
2018-04-06T05:05:20.934Z,80.20
2018-04-06T05:07:48.519Z,80.20
2018-04-06T05:10:16.048Z,80.20
2018-04-06T05:12:43.648Z,80.40
2018-04-06T05:15:11.193Z,80.20
2018-04-06T05:17:38.821Z,80.20
2018-04-06T05:20:06.409Z,80.00
2018-04-06T05:22:34.806Z,80.20
2018-04-06T05:25:02.378Z,80.10
2018-04-06T05:27:29.998Z,80.40
2018-04-06T05:29:58.374Z,82.10
2018-04-06T05:32:25.986Z,82.10
2018-04-06T05:34:53.605Z,83.50
2018-04-06T05:37:21.976Z,84.20
2018-04-06T05:39:50.342Z,84.00
2018-04-06T05:42:17.942Z,84.00
2018-04-06T05:44:45.557Z,83.70
2018-04-06T05:47:13.238Z,83.20
2018-04-06T05:49:41.640Z,82.90
2018-04-06T05:52:09.205Z,82.90
2018-04-06T05:54:36.825Z,82.00
2018-04-06T05:57:04.447Z,82.00
2018-04-06T05:59:32.054Z,81.10
2018-04-06T06:01:59.646Z,80.80
2018-04-06T06:04:27.255Z,81.70
2018-04-06T06:06:54.861Z,81.70
2018-04-06T06:09:23.207Z,81.80
2018-04-06T06:11:50.875Z,82.60
2018-04-06T06:14:18.516Z,81.40
2018-04-06T06:16:46.184Z,80.90
2018-04-06T06:19:13.795Z,80.60
2018-04-06T06:21:41.434Z,80.00
2018-04-06T06:24:09.777Z,79.30
2018-04-06T06:26:37.389Z,79.30
2018-04-06T06:29:05.788Z,78.50
2018-04-06T06:31:33.414Z,78.50
2018-04-06T06:34:01.037Z,78.10
2018-04-06T06:36:28.662Z,76.30
2018-04-06T06:38:56.250Z,76.80
2018-04-06T06:41:23.871Z,75.30
2018-04-06T06:43:52.236Z,73.40
2018-04-06T06:46:20.633Z,72.90
2018-04-06T06:48:48.988Z,71.90
2018-04-06T06:51:16.594Z,72.70
2018-04-06T06:53:44.165Z,71.60
2018-04-06T06:56:11.705Z,71.30
2018-04-06T06:58:39.262Z,71.30
2018-04-06T07:01:06.917Z,71.10
2018-04-06T07:03:35.257Z,70.70
2018-04-06T07:06:02.811Z,70.70
2018-04-06T07:08:32.031Z,70.10
2018-04-06T07:10:59.602Z,70.00
2018-04-06T07:13:27.934Z,70.10
2018-04-06T07:15:55.503Z,70.10
2018-04-06T07:18:23.110Z,70.00
2018-04-06T07:20:51.443Z,69.40
2018-04-06T07:23:19.015Z,69.40
2018-04-06T07:25:46.559Z,69.60
2018-04-06T07:28:14.151Z,70.20
2018-04-06T07:30:41.725Z,69.30
2018-04-06T07:33:10.046Z,69.00
2018-04-06T07:35:37.629Z,68.90
2018-04-06T07:38:05.171Z,68.70
2018-04-06T07:40:32.733Z,68.80
2018-04-06T07:43:00.291Z,68.30
2018-04-06T07:45:27.866Z,68.30
2018-04-06T07:47:55.423Z,68.10
2018-04-06T07:50:23.003Z,67.40
2018-04-06T07:52:50.544Z,67.60
2018-04-06T07:55:18.103Z,68.10
2018-04-06T07:57:45.647Z,68.10
2018-04-06T08:00:13.232Z,67.40
2018-04-06T08:02:40.786Z,68.00
2018-04-06T08:05:08.376Z,67.60
2018-04-06T08:07:36.674Z,67.00
2018-04-06T08:10:04.993Z,66.50
2018-04-06T08:12:32.617Z,66.50
2018-04-06T08:15:00.195Z,65.90
2018-04-06T08:17:27.852Z,66.10
2018-04-06T08:19:55.428Z,66.30
2018-04-06T08:22:23.030Z,66.20
2018-04-06T08:24:50.643Z,65.60
2018-04-06T08:27:18.262Z,65.10
2018-04-06T08:29:46.628Z,64.20
2018-04-06T08:32:14.299Z,64.10
2018-04-06T08:34:42.668Z,63.20
2018-04-06T08:37:10.307Z,63.20
2018-04-06T08:39:37.919Z,62.30
2018-04-06T08:42:05.562Z,63.40
2018-04-06T08:44:33.903Z,61.30
2018-04-06T08:47:01.536Z,61.30
2018-04-06T08:49:29.096Z,62.00
2018-04-06T08:51:56.674Z,61.80
2018-04-06T08:54:24.303Z,60.40
2018-04-06T08:56:51.841Z,60.60
2018-04-06T08:59:19.408Z,60.30
2018-04-06T09:01:47.722Z,61.00
2018-04-06T09:04:15.363Z,61.00
2018-04-06T09:06:42.962Z,61.00
2018-04-06T09:09:10.659Z,59.30
2018-04-06T09:11:38.233Z,59.40
2018-04-06T09:14:06.662Z,59.10
2018-04-06T09:16:34.239Z,59.10
2018-04-06T09:19:01.915Z,59.90
2018-04-06T09:21:29.555Z,59.70
2018-04-06T09:23:57.151Z,58.60
2018-04-06T09:26:24.708Z,59.30
2018-04-06T09:28:52.366Z,58.80
2018-04-06T09:31:19.958Z,59.00
2018-04-06T09:33:47.603Z,59.20
2018-04-06T09:36:15.967Z,58.30
2018-04-06T09:38:43.647Z,58.30
2018-04-06T09:41:12.001Z,58.40
2018-04-06T09:43:39.608Z,58.30
2018-04-06T09:46:07.251Z,58.80
2018-04-06T09:48:35.631Z,57.70
2018-04-06T09:51:04.031Z,58.30
2018-04-06T09:53:31.634Z,58.20
2018-04-06T09:55:59.290Z,57.50
2018-04-06T09:58:26.894Z,58.30
2018-04-06T10:00:58.455Z,58.70
2018-04-06T10:03:26.050Z,56.60
2018-04-06T10:05:53.632Z,56.80
2018-04-06T10:08:21.179Z,57.60
2018-04-06T10:10:48.864Z,57.20
2018-04-06T10:13:16.312Z,57.40
2018-04-06T10:15:43.915Z,57.60
2018-04-06T10:18:12.220Z,57.00
2018-04-06T10:20:39.798Z,57.00
2018-04-06T10:23:07.342Z,57.10
2018-04-06T10:25:34.883Z,56.60
2018-04-06T10:28:02.530Z,56.70
2018-04-06T10:30:30.060Z,55.90
2018-04-06T10:32:57.626Z,54.90
2018-04-06T10:35:25.159Z,53.90
2018-04-06T10:37:52.751Z,54.60
2018-04-06T10:40:20.296Z,52.70
2018-04-06T10:42:47.867Z,54.10
2018-04-06T10:45:15.414Z,52.80
2018-04-06T10:47:42.994Z,52.50
2018-04-06T10:50:10.547Z,52.00
2018-04-06T10:52:38.107Z,52.30
2018-04-06T10:55:05.674Z,50.00
2018-04-06T10:57:33.251Z,50.40
2018-04-06T11:00:00.829Z,47.60
2018-04-06T11:02:28.402Z,49.10
2018-04-06T11:04:55.966Z,50.30
2018-04-06T11:07:23.549Z,48.90
2018-04-06T11:09:51.095Z,47.20
2018-04-06T11:12:18.643Z,48.40
2018-04-06T11:14:46.215Z,48.20
2018-04-06T11:17:13.750Z,46.90
2018-04-06T11:19:41.333Z,47.70
2018-04-06T11:22:08.916Z,46.80
2018-04-06T11:24:36.491Z,46.00
2018-04-06T11:27:04.035Z,46.00
2018-04-06T11:29:31.602Z,45.90
2018-04-06T11:31:59.159Z,44.90
2018-04-06T11:34:26.721Z,44.70
2018-04-06T11:36:54.261Z,44.80
2018-04-06T11:39:21.835Z,45.70
2018-04-06T11:41:49.388Z,44.90
2018-04-06T11:44:16.954Z,45.40
2018-04-06T11:46:44.506Z,42.80
2018-04-06T11:49:12.089Z,42.00
2018-04-06T11:51:39.638Z,42.50
2018-04-06T11:54:07.214Z,42.30
2018-04-06T11:56:34.806Z,45.50
2018-04-06T11:59:02.382Z,42.80
2018-04-06T12:01:29.956Z,43.30
2018-04-06T12:03:57.506Z,43.60
2018-04-06T12:06:25.080Z,43.40
2018-04-06T12:08:52.628Z,41.70
2018-04-06T12:11:20.221Z,43.50
2018-04-06T12:13:48.346Z,43.20
2018-04-06T12:16:15.988Z,43.80
2018-04-06T12:18:43.656Z,44.70
2018-04-06T12:21:11.261Z,44.20
2018-04-06T12:23:38.845Z,43.30
2018-04-06T12:26:06.495Z,43.80
2018-04-06T12:28:34.113Z,41.40
2018-04-06T12:31:01.738Z,43.20
2018-04-06T12:33:29.359Z,43.20
2018-04-06T12:35:56.951Z,42.30
2018-04-06T12:38:24.629Z,42.40
2018-04-06T12:40:52.222Z,42.80
2018-04-06T12:43:19.840Z,42.30
2018-04-06T12:45:47.450Z,40.30
2018-04-06T12:48:15.076Z,42.50
2018-04-06T12:50:43.432Z,42.00
2018-04-06T12:53:11.094Z,41.90
2018-04-06T12:55:38.716Z,42.80
2018-04-06T12:58:06.354Z,41.20
2018-04-06T13:00:34.719Z,41.00
2018-04-06T13:03:02.401Z,41.10
2018-04-06T13:05:30.730Z,40.50
2018-04-06T13:07:58.351Z,40.50
2018-04-06T13:10:25.949Z,41.50
2018-04-06T13:12:53.468Z,41.40
2018-04-06T13:15:21.061Z,42.20
2018-04-06T13:17:48.656Z,40.10
2018-04-06T13:20:17.908Z,39.80
2018-04-06T13:22:45.489Z,39.80
2018-04-06T13:25:13.127Z,43.30
2018-04-06T13:27:40.707Z,39.60
2018-04-06T13:30:08.347Z,40.00
2018-04-06T13:32:35.906Z,39.80
2018-04-06T13:35:03.503Z,39.10
2018-04-06T13:37:31.174Z,38.40
2018-04-06T13:39:58.787Z,39.50
2018-04-06T13:42:26.437Z,39.10
2018-04-06T13:44:54.090Z,38.70
2018-04-06T13:47:21.721Z,40.80
2018-04-06T13:49:49.299Z,39.10
2018-04-06T13:52:17.672Z,38.20
2018-04-06T13:54:45.287Z,38.10
2018-04-06T13:57:12.906Z,38.20
2018-04-06T13:59:41.247Z,37.40
2018-04-06T14:02:08.884Z,37.40
2018-04-06T14:04:36.472Z,39.70
2018-04-06T14:07:04.179Z,38.30
2018-04-06T14:09:31.779Z,36.90
2018-04-06T14:11:59.403Z,37.10
2018-04-06T14:14:27.794Z,36.80
2018-04-06T14:16:55.430Z,36.80
2018-04-06T14:19:23.779Z,37.10
2018-04-06T14:21:52.180Z,35.30
2018-04-06T14:24:19.786Z,35.90
2018-04-06T14:26:47.408Z,35.90
2018-04-06T14:29:15.033Z,37.10
2018-04-06T14:31:42.706Z,36.30
2018-04-06T14:34:10.294Z,38.00
2018-04-06T14:36:37.907Z,36.70
2018-04-06T14:39:06.413Z,37.10
2018-04-06T14:41:33.996Z,38.00
2018-04-06T14:44:02.347Z,34.20
2018-04-06T14:46:29.925Z,34.20
2018-04-06T14:48:57.532Z,34.30
2018-04-06T14:51:25.146Z,34.80
2018-04-06T14:53:52.767Z,35.10
2018-04-06T14:56:20.350Z,34.80
2018-04-06T14:58:47.969Z,34.00
2018-04-06T15:01:15.545Z,34.90
2018-04-06T15:03:43.159Z,34.60
2018-04-06T15:06:10.786Z,34.00
2018-04-06T15:08:38.452Z,33.50
2018-04-06T15:11:06.070Z,34.20
2018-04-06T15:13:33.630Z,36.60
2018-04-06T15:16:01.955Z,36.30
2018-04-06T15:18:29.519Z,36.40
2018-04-06T15:20:57.062Z,36.40
2018-04-06T15:23:24.612Z,36.30
2018-04-06T15:25:52.187Z,36.00
2018-04-06T15:28:19.735Z,37.60
2018-04-06T15:30:47.294Z,35.20
2018-04-06T15:33:14.845Z,35.60
2018-04-06T15:35:42.409Z,37.40
2018-04-06T15:38:09.950Z,36.60
2018-04-06T15:40:37.560Z,36.60
2018-04-06T15:43:05.133Z,37.00
2018-04-06T15:45:32.702Z,34.70
2018-04-06T15:48:00.239Z,35.60
2018-04-06T15:53:00.330Z,35.40
2018-04-06T15:55:27.925Z,35.30
2018-04-06T15:57:56.239Z,34.30
2018-04-06T16:00:23.782Z,34.30
2018-04-06T16:02:51.355Z,33.70
2018-04-06T16:05:18.905Z,34.70
2018-04-06T16:07:46.476Z,34.20
2018-04-06T16:10:14.018Z,34.50
2018-04-06T16:12:41.669Z,33.60
2018-04-06T16:15:09.222Z,34.20
2018-04-06T16:17:36.787Z,34.40
2018-04-06T16:20:04.344Z,34.20
2018-04-06T16:22:32.675Z,34.60
2018-04-06T16:25:00.990Z,34.80
2018-04-06T16:27:28.589Z,34.70
2018-04-06T16:29:56.158Z,34.00
2018-04-06T16:32:23.779Z,34.20
2018-04-06T16:34:52.134Z,34.30
2018-04-06T16:37:19.812Z,34.20
2018-04-06T16:39:47.398Z,34.70
2018-04-06T16:42:15.083Z,34.00
2018-04-06T16:44:42.695Z,33.90
2018-04-06T16:47:10.342Z,34.70
2018-04-06T16:49:37.996Z,35.20
2018-04-06T16:52:05.588Z,34.80
2018-04-06T16:54:33.255Z,34.70
2018-04-06T16:57:01.656Z,36.20
2018-04-06T16:59:29.292Z,36.20
2018-04-06T17:01:57.181Z,36.20
2018-04-06T17:04:24.813Z,37.20
2018-04-06T17:06:52.432Z,37.50
2018-04-06T17:09:20.014Z,37.10
2018-04-06T17:11:47.613Z,37.30
2018-04-06T17:14:16.009Z,39.10
2018-04-06T17:16:43.704Z,39.10
2018-04-06T17:19:12.122Z,39.00
2018-04-06T17:21:39.707Z,39.00
2018-04-06T17:24:07.383Z,39.60
2018-04-06T17:26:34.930Z,39.80
2018-04-06T17:29:02.567Z,40.40
2018-04-06T17:31:30.952Z,40.00
2018-04-06T17:33:58.544Z,40.00
2018-04-06T17:36:26.204Z,40.40
2018-04-06T17:38:53.775Z,40.70
2018-04-06T17:41:21.392Z,40.50
2018-04-06T17:43:55.722Z,41.40
2018-04-06T17:46:23.353Z,41.40
2018-04-06T17:48:51.013Z,41.70
2018-04-06T17:51:18.662Z,42.00
2018-04-06T17:53:46.275Z,42.90
2018-04-06T17:56:13.919Z,42.50
2018-04-06T17:58:41.514Z,43.10
2018-04-06T18:01:09.125Z,42.70
2018-04-06T18:03:36.747Z,43.40
2018-04-06T18:06:05.110Z,43.30
2018-04-06T18:08:32.719Z,43.30
2018-04-06T18:11:00.343Z,43.40
2018-04-06T18:13:27.940Z,43.30
2018-04-06T18:15:55.530Z,43.40
2018-04-06T18:18:23.083Z,43.90
2018-04-06T18:20:50.631Z,42.90
2018-04-06T18:23:18.210Z,43.70
2018-04-06T18:25:45.748Z,43.10
2018-04-06T18:28:13.339Z,43.20
2018-04-06T18:30:40.880Z,43.80
2018-04-06T18:33:08.450Z,44.30
2018-04-06T18:35:36.086Z,44.00
2018-04-06T18:38:03.731Z,43.70
2018-04-06T18:40:32.082Z,44.60
2018-04-06T18:42:59.670Z,44.60
2018-04-06T18:45:28.040Z,44.70
2018-04-06T18:47:56.419Z,45.20
2018-04-06T18:50:24.787Z,44.90
2018-04-06T18:52:52.388Z,44.90
2018-04-06T18:55:20.065Z,46.30
2018-04-06T18:57:47.610Z,45.70
2018-04-06T19:00:15.191Z,46.10
2018-04-06T19:02:42.732Z,46.30
2018-04-06T19:05:10.367Z,46.30
2018-04-06T19:07:38.686Z,47.30
2018-04-06T19:10:06.249Z,47.30
2018-04-06T19:12:33.791Z,48.30
2018-04-06T19:15:01.393Z,48.20
2018-04-06T19:17:28.955Z,48.80
2018-04-06T19:19:56.601Z,48.90
2018-04-06T19:22:24.206Z,49.50
2018-04-06T19:24:52.620Z,49.70
2018-04-06T19:27:20.235Z,49.60
2018-04-06T19:29:47.837Z,50.10
2018-04-06T19:32:15.429Z,50.10
2018-04-06T19:34:43.069Z,50.90
2018-04-06T19:37:10.666Z,51.10
2018-04-06T19:39:38.303Z,50.30
2018-04-06T19:42:05.942Z,50.90
2018-04-06T19:44:33.598Z,51.70
2018-04-06T19:47:01.267Z,51.40
2018-04-06T19:49:28.902Z,51.80
2018-04-06T19:51:56.526Z,52.10
2018-04-06T19:54:24.098Z,52.40
2018-04-06T19:56:51.658Z,52.20
2018-04-06T19:59:19.210Z,52.10
2018-04-06T20:01:46.808Z,52.80
2018-04-06T20:04:14.371Z,52.70
2018-04-06T20:06:42.694Z,53.90
2018-04-06T20:09:10.258Z,53.90
2018-04-06T20:11:38.594Z,54.20
2018-04-06T20:14:06.146Z,54.20
2018-04-06T20:16:34.498Z,53.50
2018-04-06T20:19:02.040Z,53.50
2018-04-06T20:21:29.635Z,53.60
2018-04-06T20:23:57.169Z,53.00
2018-04-06T20:26:24.705Z,52.90
2018-04-06T20:28:52.269Z,52.60
2018-04-06T20:31:19.816Z,52.60
2018-04-06T20:33:47.451Z,52.50
2018-04-06T20:36:15.110Z,52.40
2018-04-06T20:38:43.515Z,52.10
2018-04-06T20:41:11.110Z,52.10
2018-04-06T20:43:38.719Z,52.20
2018-04-06T20:46:06.318Z,52.70
2018-04-06T20:48:33.946Z,53.00
2018-04-06T20:51:01.545Z,53.00
2018-04-06T20:53:29.196Z,53.00
2018-04-06T20:55:56.739Z,53.00
2018-04-06T20:58:24.274Z,53.70
2018-04-06T21:00:52.643Z,54.00
2018-04-06T21:03:20.954Z,53.80
2018-04-06T21:05:48.519Z,53.80
2018-04-06T21:08:16.064Z,53.60
2018-04-06T21:10:43.658Z,53.90
2018-04-06T21:13:11.206Z,54.20
2018-04-06T21:15:38.777Z,54.20
2018-04-06T21:18:06.323Z,54.20
2018-04-06T21:20:33.934Z,54.10
2018-04-06T21:23:02.311Z,54.20
2018-04-06T21:25:29.973Z,54.20
2018-04-06T21:27:57.549Z,54.30
2018-04-06T21:30:25.946Z,54.40
2018-04-06T21:32:53.552Z,54.40
2018-04-06T21:35:21.176Z,54.70
2018-04-06T21:37:48.762Z,54.70
2018-04-06T21:40:16.447Z,54.80
2018-04-06T21:42:44.024Z,54.50
2018-04-06T21:45:11.659Z,53.80
2018-04-06T21:47:39.282Z,54.20
2018-04-06T21:50:06.898Z,54.50
2018-04-06T21:52:34.460Z,54.20
2018-04-06T21:55:02.033Z,54.20
2018-04-06T21:57:30.369Z,54.30
2018-04-06T21:59:57.944Z,54.30
2018-04-06T22:02:25.479Z,54.90
2018-04-06T22:04:53.026Z,54.60
2018-04-06T22:07:20.596Z,54.30
2018-04-06T22:09:48.138Z,54.60
2018-04-06T22:12:15.722Z,54.70
2018-04-06T22:14:43.288Z,55.10
2018-04-06T22:17:10.858Z,54.90
2018-04-06T22:19:38.398Z,54.70
2018-04-06T22:22:05.966Z,54.60
2018-04-06T22:24:33.511Z,54.90
2018-04-06T22:27:01.088Z,54.60
2018-04-06T22:29:28.729Z,55.00
2018-04-06T22:31:56.353Z,54.90
2018-04-06T22:34:24.714Z,55.30
2018-04-06T22:36:52.310Z,55.20
2018-04-06T22:39:20.663Z,55.50
2018-04-06T22:41:48.286Z,55.50
2018-04-06T22:44:15.877Z,55.40
2018-04-06T22:46:43.493Z,55.40
2018-04-06T22:49:11.156Z,55.50
2018-04-06T22:51:38.741Z,55.70
2018-04-06T22:54:06.337Z,55.70
2018-04-06T22:56:33.880Z,55.60
2018-04-06T22:59:01.438Z,56.00
2018-04-06T23:01:29.014Z,55.70
2018-04-06T23:03:56.588Z,55.70
2018-04-06T23:06:24.903Z,55.40
2018-04-06T23:08:52.474Z,55.30
2018-04-06T23:11:20.043Z,55.40
2018-04-06T23:13:47.655Z,55.70
2018-04-06T23:16:15.246Z,55.60
2018-04-06T23:18:42.842Z,55.80
2018-04-06T23:21:10.441Z,56.00
2018-04-06T23:23:38.092Z,55.50
2018-04-06T23:26:06.444Z,55.90
2018-04-06T23:28:34.095Z,55.90
2018-04-06T23:31:01.712Z,56.20
2018-04-06T23:33:29.313Z,56.10
2018-04-06T23:35:56.882Z,55.90
2018-04-06T23:38:24.479Z,56.10
2018-04-06T23:40:52.147Z,56.00
2018-04-06T23:43:19.772Z,56.10
2018-04-06T23:45:47.386Z,55.70
2018-04-06T23:48:14.983Z,56.00
2018-04-06T23:50:42.604Z,55.90
2018-04-06T23:53:10.208Z,56.00
2018-04-06T23:55:37.839Z,56.00
2018-04-06T23:58:05.464Z,56.00
